Signal Hill, California
Current Conditions -  °F | °C
As of 7:53 PM on Wednesday 22 Oct 2014 (Local Time) from KLGB Reporting Station
Clear Clear  
Wind Chill: 21°   Ceiling: Unl
Heat Index: 21°   Visibility: 10mi
Dew Point: 17°   Wind: 6mph
Humidity: 78%   Direction: 310°NW
Pressure: 29.93"   Gusts: NA
Location:  33.8°N, 118.16°W
Report Text: KLGB 230253Z 31005KT 10SM CLR 21/17 A2993 RMK AO2 SLP134 T02110172 53016
Loading
Personal Weather Stations






























Interactive Weather Map
Tropical Storm Tracking
New forecast layout! Learn more

10-Day Weather Forecast

Advertisements
Track Severe Weather on mobile